Flight Track Log - Related Links

Times and Time Zones

All times are in EDT time to prevent confusion due to time zone crossing. See the N735YG flight status page for this flight to view local times or setup timezone preferences in your user account.

Time Position Orientation Groundspeed Altitude Reporting Facility
EDT Latitude Longitude Course Direction KTS MPH feet Rate Location/Type
Sat 05:06:14 PM 40.9978 -85.4100 North 120 138 5,000  Level Chicago Center
Sat 05:07:16 PM 41.0308 -85.4067 North 120 138 5,400 242 Climbing Chicago Center
Sat 05:08:18 PM 41.0717 -85.4014 North 132 152 5,500 48 Climbing Chicago Center
Sat 05:09:00 PM 41.0626 -85.4278 North  Level Estimated
Sat 05:09:20 PM 41.1128 -85.3911 11° North 143 165 5,500  Level Chicago Center
Sat 05:10:00 PM 41.1045 -85.4219 North  Level Estimated
Sat 05:10:21 PM 41.1628 -85.3850 North 148 170 5,500  Level Chicago Center
Sat 05:11:00 PM 41.1464 -85.4160 North  Level Estimated
Sat 05:11:23 PM 41.2025 -85.3814 North 147 169 5,500  Level Chicago Center
Sat 05:12:25 PM 41.2414 -85.3753 North 144 166 5,500  Level Chicago Center
Sat 05:13:26 PM 41.2808 -85.3711 North 143 165 5,500  Level Chicago Center
Sat 05:14:28 PM 41.3211 -85.3661 North 144 166 5,500  Level Chicago Center
Sat 05:15:30 PM 41.3614 -85.3639 North 144 166 5,500  Level Chicago Center
Sat 05:16:31 PM 41.4022 -85.3578 North 146 168 5,500  Level Chicago Center
Sat 05:17:33 PM 41.4514 -85.3533 North 147 169 5,500  Level Chicago Center
Sat 05:18:34 PM 41.4928 -85.3464 North 149 171 5,500  Level Chicago Center
Sat 05:19:36 PM 41.5319 -85.3414 North 147 169 5,500  Level Chicago Center
Sat 05:20:38 PM 41.5725 -85.3372 North 146 168 5,500  Level Chicago Center
Sat 05:21:39 PM 41.6119 -85.3342 North 145 167 5,500  Level Chicago Center
Sat 05:22:41 PM 41.6603 -85.3264 North 147 169 5,500  Level Chicago Center
Sat 05:23:43 PM 41.7006 -85.3206 North 147 169 5,500  Level Chicago Center
Sat 05:24:44 PM 41.7408 -85.3178 North 147 169 5,500  Level Chicago Center
Sat 05:25:45 PM 41.7803 -85.3128 North 145 167 5,500  Level Chicago Center
Sat 05:26:47 PM 41.8208 -85.3094 North 146 168 5,500  Level Chicago Center
Sat 05:27:48 PM 41.8606 -85.3053 North 145 167 5,500  Level Chicago Center
Sat 05:28:50 PM 41.9008 -85.2994 North 145 167 5,500 -98 Level Chicago Center
Sat 05:29:51 PM 41.9508 -85.2933 North 149 171 5,300 -195 Descending Chicago Center
Sat 05:30:53 PM 41.9933 -85.2889 North 153 176 5,100 -244 Descending Chicago Center
Sat 05:31:54 PM 42.0358 -85.2836 North 154 177 4,800 -293 Descending Chicago Center
Sat 05:32:56 PM 42.0778 -85.2783 North 152 175 4,500 -290 Descending Chicago Center
Sat 05:33:58 PM 42.1194 -85.2722 North 152 175 4,200 -341 Descending Chicago Center
Sat 05:34:59 PM 42.1614 -85.2694 North 151 174 3,800 -488 Descending Chicago Center
Sat 05:36:01 PM 42.2019 -85.2650 North 149 171 3,200 -488 Descending Chicago Center
Sat 05:37:02 PM 42.2486 -85.2600 North 143 165 2,800 -634 Descending Chicago Center
Sat 05:38:04 PM 42.2828 -85.2542 North 134 154 1,900 -488 Descending Chicago Center
Sat 05:39:05 PM 42.3039 -85.2208 49° Northeast 124 143 1,800 -195 Descending Chicago Center
Sat 05:40:07 PM 42.3269 -85.2311 342° North 109 125 1,500 -290 Descending Chicago Center
Sat 05:42:00 PM 42.3000 -85.2500 236° Southwest  Level FlightAware Approximate

Login

Don't have an account? Register now (free) for customized features, flight alerts, and more!